ハーツフィールド・ジャクソン・アトランタ国際空港の過去48時間の天気

ハーツフィールド・ジャクソン・アトランタ国際空港 (Atlanta, Hartsfield - Jackson Atlanta International Airport)

現在時刻: 5/25 22:07 EDT (5/26 02:07 UTC) 以下の時間は現地時間です。

過去48時間のMETAR気象情報
時間 風向 風速(m/s) 視程 気温(℃) 湿度(%) 気圧(hPa) 天気現象
25 21:52 4 10km以上 21.7 87 1018.3
25 21:19 4 10km以上 21.7 87 1019
25 20:52 3 10km以上 22.2 84 1018.5
25 19:52 東南東 3 10km以上 22.2 82 1018.2
25 18:52 南南東 2 10km以上 22.2 87 1018.1
25 17:52 4 10km以上 21.7 87 1018.8 弱い雨 もや
25 16:52 南東 4 10km以上 24.4 76 1018.6 弱い雨
25 15:52 東南東 5 10km以上 25.6 67 1018.5
25 14:52 東南東 6 10km以上 26.1 65 1018.6
25 14:49 東南東 6 10km以上 26 65 1020
25 13:52 7 10km以上 24.4 71 1019
25 12:52 7 10km以上 22.8 76 1019.7
25 11:52 東南東 6 10km以上 21.1 81 1020.5
25 11:33 東南東 6 10km以上 21.1 81 1021
25 10:52 6 10km以上 20.6 84 1020.6
25 09:52 7 10km以上 20 87 1020.4
25 08:52 6 10km以上 20 87 1020
25 07:52 東南東 6 10km以上 20.6 84 1019.2
25 07:09 6 10km以上 20.6 84 1020
25 06:52 東南東 5 10km以上 20.6 84 1019.4
25 05:59 5 10km以上 20.6 84 1020
25 05:19 6 10km以上 20.6 87 1020
25 04:52 6 10km以上 20.6 84 1018.7
25 03:52 6 10km以上 21.1 78 1018.3
25 02:52 4 10km以上 21.1 78 1018.1
25 01:52 4 10km以上 21.1 78 1018.3
25 00:52 4 10km以上 21.7 73 1018.7
24 23:52 南東 3 10km以上 21.7 73 1019.1
24 22:52 南南東 4 10km以上 21.1 76 1018.8
24 21:52 南南東 4 10km以上 21.7 73 1018.8
24 20:52 南南東 11 10km以上 25.6 64 1018.4
24 19:52 南南東 4 10km以上 27.2 62 1017.2
24 18:52 4 10km以上 28.3 55 1016.2
24 17:52 3 10km以上 28.3 57 1016.2
24 16:52 4 10km以上 28.3 55 1016.1
24 15:52 南南西 4 10km以上 27.8 58 1017.1
24 14:52 3 10km以上 27.2 62 1017.9
24 13:52 3 10km以上 26.7 62 1018.1
24 12:52 4 10km以上 26.7 64 1018.4
24 11:52 静穏 0 10km以上 26.1 69 1018.4
24 10:52 静穏 0 10km以上 23.9 71 1018.5
24 09:52 西北西 2 10km以上 22.8 81 1018.4
24 08:52 2 10km以上 21.7 84 1018
24 07:52 南西 2 10km以上 20.6 90 1018.1
24 06:52 静穏 0 10km以上 20.6 90 1017.1
24 05:52 静穏 0 10km以上 20.6 90 1016.7
24 04:52 西 2 10km以上 20.6 90 1016.7
24 03:52 西 2 10km以上 20.6 90 1016.7
24 02:52 西南西 2 10km以上 20.6 90 1017.2
24 01:52 南南西 2 10km以上 20.6 90 1017.7
24 00:52 南西 2 10km以上 21.7 84 1017.8
23 23:52 静穏 0 10km以上 21.7 84 1017.8
23 22:52 北西 2 10km以上 21.7 84 1017.6
KATL 260152Z 09008KT 10SM SCT008 BKN015 OVC200 22/19 A3009 RMK AO2 SLP183 SCT008 V BKN T02170194
KATL 260119Z 10007KT 10SM FEW009 BKN024 BKN070 BKN200 22/19 A3009 RMK AO2 T02170194
KATL 260052Z 10006KT 10SM FEW009 BKN070 BKN100 BKN200 22/19 A3010 RMK AO2 SLP185 T02220194
KATL 252352Z 11005KT 10SM BKN070 BKN100 BKN200 22/19 A3009 RMK AO2 SLP182 60020 T02220189 10267 20217 55005
KATL 252252Z 16004KT 10SM SCT055 BKN130 BKN200 22/20 A3009 RMK AO2 RAE14 SLP181 CB DSNT NE-E P0002 T02220200
KATL 252152Z 19008KT 6SM -RA BR FEW015 SCT050 BKN110 OVC200 22/19 A3011 RMK AO2 SLP188 CB DSNT NE-E P0018 T02170194
KATL 252052Z 13008KT 7SM -RA SCT048 BKN080 BKN110 OVC200 24/20 A3010 RMK AO2 LTG DSNT NW RAB41 SLP186 CB DSNT S-SE NW TCU DSNT NE P0000 60000 T02440200 55004
KATL 251952Z 11009G16KT 10SM FEW027 SCT045 SCT110 BKN200 26/19 A3010 RMK AO2 LTG DSNT W SLP185 CB DSNT W-NW T02560189
KATL 251852Z 11011G20KT 10SM SCT026TCU BKN034 BKN140 BKN200 26/19 A3011 RMK AO2 SLP186 TCU SE-SW MDT CU ALQDS T02610189
KATL 251849Z 11011G21KT 10SM SCT024TCU BKN032 BKN140 BKN200 26/19 A3011 RMK AO2 TCU SE-SW MDT CU ALQDS
KATL 251752Z 09013G18KT 10SM BKN020 OVC032 24/19 A3012 RMK AO2 SLP190 BINOVC 60000 T02440189 10244 20200 58014
KATL 251652Z 10013G21KT 10SM OVC017 23/18 A3014 RMK AO2 SLP197 T02280183
KATL 251552Z 11012KT 9SM OVC012 21/18 A3016 RMK AO2 SLP205 T02110178
KATL 251533Z 11011KT 9SM OVC010 21/18 A3016 RMK AO2 T02110178
KATL 251452Z 10012KT 8SM OVC007 21/18 A3016 RMK AO2 DZB08E26 SLP206 P0000 60000 T02060178 51012
KATL 251352Z 09013G19KT 10SM OVC007 20/18 A3015 RMK AO2 SLP204 T02000178
KATL 251252Z 09012KT 7SM OVC006 20/18 A3014 RMK AO2 SLP200 T02000178
KATL 251152Z 11011KT 7SM OVC008 21/18 A3012 RMK AO2 SLP192 CIG 007V009 T02060178 10211 20206 50005
KATL 251109Z 10011G18KT 10SM OVC009CB 21/18 A3013 RMK AO2 CB VC S MOV NW & DSNT NE T02060178
KATL 251052Z COR 11010KT 10SM OVC010CB 21/18 A3013 RMK AO2 LTG DSNT NE SLP194 CB VC NE MOV NW T02060178
KATL 250959Z 09010KT 10SM OVC010 21/18 A3012 RMK AO2 T02060178
KATL 250919Z 09011KT 10SM BKN009 OVC036 21/18 A3012 RMK AO2 T02060183
KATL 250852Z 09011KT 10SM BKN010 BKN036 OVC055 21/18 A3011 RMK AO2 SLP187 BKN010 V SCT T02060178 53003
KATL 250752Z 09011KT 10SM BKN036 OVC045 21/17 A3010 RMK AO2 SLP183 T02110172
KATL 250652Z 09008KT 10SM SCT039 BKN200 21/17 A3009 RMK AO2 SLP181 T02110172
KATL 250552Z 10007KT 10SM BKN150 BKN180 21/17 A3010 RMK AO2 SLP183 60000 T02110172 10272 20206 58003
KATL 250452Z 09007KT 10SM BKN140 BKN200 22/17 A3011 RMK AO2 SLP187 T02170167 402890200
KATL 250352Z 13005KT 10SM BKN130 BKN200 BKN250 22/17 A3012 RMK AO2 SLP191 T02170167
KATL 250252Z 15007KT 10SM FEW080 SCT120 BKN200 BKN250 21/17 A3011 RMK AO2 SLP188 60000 T02110167 51015
KATL 250152Z 16008KT 10SM SCT080 BKN110 BKN200 22/17 A3011 RMK AO2 PK WND 16035/0056 RAB0058E18 SLP188 P0000 T02170167
KATL 250052Z 16022G33KT 9SM SCT045TCU BKN100 BKN150 BKN250 26/18 A3010 RMK AO2 PK WND 16033/0051 PRESRR SLP184 CB DSNT SE SW TCU NE-OHD-W T02560183
KATL 242352Z 15007KT 10SM FEW040 BKN150 BKN250 27/19 A3006 RMK AO2 SLP172 CB DSNT SE-SW T02720194 10289 20261 53010
KATL 242252Z 18007KT 10SM FEW040 SCT200 28/18 A3004 RMK AO2 SLP162 T02830183
KATL 242152Z 19006KT 10SM SCT040TCU SCT200 28/19 A3004 RMK AO2 SLP162 TCU NW-NE T02830189
KATL 242052Z 19007KT 10SM FEW040TCU FEW120 SCT200 SCT250 28/18 A3003 RMK AO2 SLP161 TCU SE MDT CU NE SE-SW NW T02830183 58019
KATL 241952Z 20007KT 10SM SCT038TCU SCT120 BKN200 BKN250 28/19 A3006 RMK AO2 SLP171 TCU NE S DSNT SE NW MDT CU ALQDS T02780189
KATL 241852Z 19005KT 10SM SCT032 SCT120 BKN180 BKN250 27/19 A3009 RMK AO2 SLP179 MDT CU NE-SE-SW T02720194
KATL 241752Z 18006KT 10SM FEW028 SCT120 BKN180 BKN250 27/19 A3009 RMK AO2 SLP181 T02670189 10267 20206 58003
KATL 241652Z 18007KT 10SM FEW028 BKN180 BKN250 BKN300 27/19 A3010 RMK AO2 SLP184 T02670194
KATL 241552Z 00000KT 10SM FEW018 BKN180 BKN250 OVC300 26/20 A3010 RMK AO2 SLP184 T02610200
KATL 241452Z 00000KT 10SM FEW014 FEW110 SCT160 OVC200 24/18 A3010 RMK AO2 SLP185 T02390183 53005
KATL 241352Z 29003KT 10SM FEW010 FEW100 SCT140 OVC180 23/19 A3010 RMK AO2 SLP184 VIRGA NW-NE T02280194
KATL 241252Z 19003KT 10SM FEW009 BKN100 BKN150 OVC200 22/19 A3009 RMK AO2 SLP180 VIRGA ALQDS T02170189
KATL 241152Z 22003KT 10SM FEW007 BKN150 BKN200 BKN250 21/19 A3009 RMK AO2 SLP181 VIRGA ALQDS 70017 T02060189 10211 20200 53012
KATL 241052Z 00000KT 10SM FEW005 SCT150 BKN250 21/19 A3006 RMK AO2 SLP171 VIRGA E-OHD-W T02060189
KATL 240952Z 00000KT 10SM FEW005 OVC150 21/19 A3005 RMK AO2 SLP167 T02060189
KATL 240852Z 28004KT 7SM FEW005 OVC150 21/19 A3005 RMK AO2 SLP167 T02060189 55008
KATL 240752Z 28003KT 10SM FEW020 OVC150 21/19 A3005 RMK AO2 SLP167 T02060189
KATL 240652Z 25003KT 10SM FEW020 OVC200 21/19 A3006 RMK AO2 SLP172 T02060189
KATL 240552Z 21004KT 10SM FEW020 OVC180 21/19 A3008 RMK AO2 SLP177 T02060189 10228 20206 50002
KATL 240452Z 23003KT 10SM FEW120 OVC180 22/19 A3008 RMK AO2 SLP178 T02170189 402560200
KATL 240352Z 00000KT 10SM FEW120 OVC200 22/19 A3008 RMK AO2 SLP178 T02170189
KATL 240252Z 32004KT 10SM FEW120 BKN180 OVC250 22/19 A3007 RMK AO2 SLP176 T02170189 50004